Time;durP1;ratioP1;P1;durP2;ratioP2;P2;SDS_P1;SDS_P2;PMS_P1;PMS_P2;Temp;Humidity;BMP_temperature;BMP_pressure;BME280_temperature;BME280_humidity;BME280_pressure;Samples;Min_cycle;Max_cycle;Signal;HPM_P1;HPM_P2
2021/07/18 00:00:20;;;;;;;5.50;2.17;;;17.20;99.90;;;;;;5029743;28;20128;-82
2021/07/18 00:03:07;;;;;;;4.28;2.33;;;17.10;99.90;;;;;;5023853;28;20472;-82
2021/07/18 00:05:55;;;;;;;4.28;1.98;;;17.20;99.90;;;;;;5035958;28;20042;-83
2021/07/18 00:08:42;;;;;;;6.80;2.08;;;17.20;99.90;;;;;;5021201;28;20041;-82
2021/07/18 00:11:30;;;;;;;4.32;2.40;;;17.20;99.90;;;;;;5033667;28;20133;-83
2021/07/18 00:14:17;;;;;;;6.35;2.70;;;17.10;99.90;;;;;;5027356;28;20136;-82
2021/07/18 00:17:04;;;;;;;5.15;2.30;;;17.10;99.90;;;;;;5024118;28;20041;-82
2021/07/18 00:19:52;;;;;;;4.13;2.15;;;17.10;99.90;;;;;;5032234;28;20041;-83
2021/07/18 00:22:40;;;;;;;4.40;2.33;;;17.00;99.90;;;;;;5029862;28;20505;-81
2021/07/18 00:25:27;;;;;;;5.63;2.30;;;17.00;99.90;;;;;;5021628;28;20052;-84
2021/07/18 00:28:15;;;;;;;5.32;2.60;;;16.90;99.90;;;;;;5027993;28;20051;-82
2021/07/18 00:31:02;;;;;;;5.10;2.58;;;16.90;99.90;;;;;;5026817;28;20483;-84
2021/07/18 00:33:50;;;;;;;7.25;2.75;;;16.90;99.90;;;;;;5023155;28;20563;-82
2021/07/18 00:36:37;;;;;;;7.22;2.90;;;16.90;99.90;;;;;;5025439;28;20098;-82
2021/07/18 00:39:24;;;;;;;6.45;3.00;;;16.90;99.90;;;;;;5024725;28;20057;-82
2021/07/18 00:42:16;;;;;;;3.72;2.33;;;16.80;99.90;;;;;;5026679;28;20060;-82
2021/07/18 00:45:07;;;;;;;6.57;2.95;;;16.80;99.90;;;;;;5029607;28;20635;-82
2021/07/18 00:47:55;;;;;;;8.38;3.28;;;16.70;99.90;;;;;;5042146;28;20046;-82
2021/07/18 00:50:44;;;;;;;5.78;2.50;;;16.70;99.90;;;;;;5019937;28;20046;-82
2021/07/18 00:53:31;;;;;;;5.03;2.97;;;16.70;99.90;;;;;;5039283;28;20045;-80
2021/07/18 00:56:18;;;;;;;10.82;3.42;;;16.70;99.90;;;;;;5024308;28;20053;-82
2021/07/18 00:59:05;;;;;;;5.72;3.33;;;16.70;99.90;;;;;;5024488;28;20081;-83
2021/07/18 01:01:54;;;;;;;6.65;3.50;;;16.70;99.90;;;;;;5022507;28;20524;-83
2021/07/18 01:04:42;;;;;;;8.20;3.20;;;16.70;99.90;;;;;;5029261;28;20049;-82
2021/07/18 01:07:30;;;;;;;9.75;3.30;;;16.70;99.90;;;;;;5026604;28;20038;-81
2021/07/18 01:10:17;;;;;;;8.27;2.78;;;16.70;99.90;;;;;;5024642;28;20134;-83
2021/07/18 01:13:04;;;;;;;6.55;3.10;;;16.80;99.90;;;;;;5041769;28;20042;-83
2021/07/18 01:15:56;;;;;;;8.68;3.28;;;16.80;99.90;;;;;;5028529;28;20516;-83
2021/07/18 01:18:45;;;;;;;7.65;3.50;;;16.80;99.90;;;;;;5022139;28;20053;-83
2021/07/18 01:21:34;;;;;;;6.45;3.13;;;16.90;99.90;;;;;;5031620;28;20140;-82
2021/07/18 01:24:23;;;;;;;10.18;4.18;;;16.90;99.90;;;;;;5022424;28;20532;-82
2021/07/18 01:27:10;;;;;;;6.50;3.65;;;16.80;99.90;;;;;;5039433;28;20077;-82
2021/07/18 01:29:58;;;;;;;8.55;3.63;;;16.90;99.90;;;;;;5014491;28;20125;-82
2021/07/18 01:32:45;;;;;;;4.70;2.78;;;16.90;99.90;;;;;;5025227;28;20045;-83
2021/07/18 01:35:32;;;;;;;8.13;3.50;;;16.90;99.90;;;;;;5024268;28;20112;-79
2021/07/18 01:38:19;;;;;;;7.57;3.45;;;16.80;99.90;;;;;;5022301;28;20041;-82
2021/07/18 01:41:08;;;;;;;8.52;4.10;;;16.70;99.90;;;;;;5020698;28;20053;-82
2021/07/18 01:43:55;;;;;;;8.55;4.03;;;16.60;99.90;;;;;;5023447;28;20115;-82
2021/07/18 01:46:42;;;;;;;7.85;3.20;;;16.60;99.90;;;;;;5021966;28;20501;-82
2021/07/18 01:49:29;;;;;;;5.68;3.13;;;16.70;99.90;;;;;;5023786;28;20053;-82
2021/07/18 01:52:17;;;;;;;6.65;3.42;;;16.70;99.90;;;;;;5026504;28;20535;-82
2021/07/18 01:55:05;;;;;;;8.55;3.65;;;16.60;99.90;;;;;;5022674;28;20060;-82
2021/07/18 01:57:54;;;;;;;7.22;3.60;;;16.60;99.90;;;;;;5029109;28;20051;-83
2021/07/18 02:00:41;;;;;;;7.35;3.38;;;16.60;99.90;;;;;;5025578;28;20041;-82
2021/07/18 02:03:28;;;;;;;8.57;3.42;;;16.60;99.90;;;;;;5025879;28;20100;-83
2021/07/18 02:06:15;;;;;;;8.07;3.58;;;16.60;99.90;;;;;;5041256;28;20136;-82
2021/07/18 02:09:04;;;;;;;6.35;3.30;;;16.60;99.90;;;;;;5025804;28;20272;-82
2021/07/18 02:11:51;;;;;;;6.35;3.20;;;16.60;99.90;;;;;;5028198;28;20069;-82
2021/07/18 02:14:40;;;;;;;8.85;3.28;;;16.60;99.90;;;;;;5025886;28;20049;-82
2021/07/18 02:17:27;;;;;;;5.95;3.28;;;16.60;99.90;;;;;;5028483;28;20101;-81
2021/07/18 02:20:16;;;;;;;9.38;3.35;;;16.60;99.90;;;;;;5025068;28;20519;-83
2021/07/18 02:23:04;;;;;;;6.20;3.60;;;16.50;99.90;;;;;;5029382;28;20520;-82
2021/07/18 02:25:51;;;;;;;4.28;2.50;;;16.50;99.90;;;;;;5027252;28;20042;-82
2021/07/18 02:28:38;;;;;;;5.88;2.70;;;16.50;99.90;;;;;;5022000;28;20046;-81
2021/07/18 02:31:27;;;;;;;7.13;3.05;;;16.40;99.90;;;;;;5021819;28;20124;-83
2021/07/18 02:34:14;;;;;;;5.60;2.83;;;16.30;99.90;;;;;;5024081;28;20046;-82
2021/07/18 02:37:01;;;;;;;9.15;3.05;;;16.20;99.90;;;;;;5026740;28;20056;-82
2021/07/18 02:39:48;;;;;;;6.70;3.10;;;16.30;99.90;;;;;;5018427;28;20046;-82
2021/07/18 02:42:36;;;;;;;6.53;2.90;;;16.20;99.90;;;;;;5031728;28;20045;-83
2021/07/18 02:45:24;;;;;;;6.75;3.00;;;16.10;99.90;;;;;;5030714;28;20083;-83
2021/07/18 02:48:12;;;;;;;6.78;3.20;;;16.00;99.90;;;;;;5032119;28;20052;-82
2021/07/18 02:50:59;;;;;;;7.18;3.40;;;15.90;99.90;;;;;;5033466;28;20045;-82
2021/07/18 02:53:46;;;;;;;8.60;3.60;;;15.90;99.90;;;;;;5030809;28;20042;-83
2021/07/18 02:56:33;;;;;;;7.40;3.15;;;15.80;99.90;;;;;;5044828;28;20511;-81
2021/07/18 02:59:21;;;;;;;5.57;3.10;;;15.80;99.90;;;;;;5025170;28;20045;-82
2021/07/18 03:02:08;;;;;;;7.45;3.17;;;15.70;99.90;;;;;;5028697;28;20046;-82
2021/07/18 03:04:56;;;;;;;6.95;3.20;;;15.70;99.90;;;;;;5042230;28;20045;-83
2021/07/18 03:07:44;;;;;;;6.20;3.28;;;15.70;99.90;;;;;;5036739;28;20142;-82
2021/07/18 03:10:31;;;;;;;10.80;3.72;;;15.70;99.90;;;;;;5044061;28;20075;-83
2021/07/18 03:13:18;;;;;;;6.47;2.88;;;15.60;99.90;;;;;;5029112;28;20053;-83
2021/07/18 03:16:05;;;;;;;6.38;3.05;;;15.60;99.90;;;;;;5025629;28;20042;-83
2021/07/18 03:18:53;;;;;;;6.43;3.00;;;15.60;99.90;;;;;;5042936;28;20045;-81
2021/07/18 03:21:41;;;;;;;5.30;2.78;;;15.60;99.90;;;;;;5034039;28;20423;-82
2021/07/18 03:24:28;;;;;;;4.90;2.88;;;15.50;99.90;;;;;;5025744;28;20045;-81
2021/07/18 03:27:16;;;;;;;4.93;3.20;;;15.50;99.90;;;;;;5031172;28;20485;-83
2021/07/18 03:30:05;;;;;;;7.65;3.15;;;15.40;99.90;;;;;;5028135;28;20045;-82
2021/07/18 03:32:52;;;;;;;5.57;3.08;;;15.40;99.90;;;;;;5030440;28;20052;-83
2021/07/18 03:35:39;;;;;;;8.18;3.72;;;15.50;99.90;;;;;;5026738;28;20436;-81
2021/07/18 03:38:27;;;;;;;7.43;3.17;;;15.40;99.90;;;;;;5030665;28;20080;-81
2021/07/18 03:41:18;;;;;;;8.38;2.90;;;15.40;99.90;;;;;;5020893;28;20073;-82
2021/07/18 03:44:06;;;;;;;6.60;2.67;;;15.40;99.90;;;;;;5029933;28;20044;-82
2021/07/18 03:46:53;;;;;;;6.15;2.92;;;15.30;99.90;;;;;;5027783;28;20046;-82
2021/07/18 03:49:40;;;;;;;6.93;2.97;;;15.30;99.90;;;;;;5020683;28;20046;-82
2021/07/18 03:52:27;;;;;;;7.32;3.00;;;15.30;99.90;;;;;;5028870;28;20045;-82
2021/07/18 03:55:15;;;;;;;5.97;2.85;;;15.30;99.90;;;;;;5030583;28;20056;-82
2021/07/18 03:58:02;;;;;;;7.05;3.13;;;15.30;99.90;;;;;;5030490;28;20048;-82
2021/07/18 04:00:49;;;;;;;6.53;3.10;;;15.20;99.90;;;;;;5029272;28;20171;-83
2021/07/18 04:03:36;;;;;;;8.63;3.35;;;15.20;99.90;;;;;;5031794;28;20045;-82
2021/07/18 04:06:23;;;;;;;7.07;3.63;;;15.30;99.90;;;;;;5030874;28;20049;-83
2021/07/18 04:11:37;;;;;;;5.50;3.65;;;15.30;99.90;;;;;;5046341;23;20049;-84
2021/07/18 04:14:24;;;;;;;6.63;3.30;;;15.30;99.90;;;;;;5014323;28;20045;-82
2021/07/18 04:17:11;;;;;;;9.55;3.45;;;15.30;99.90;;;;;;5017618;28;20116;-81
2021/07/18 04:19:58;;;;;;;7.75;3.50;;;15.40;99.90;;;;;;5028207;28;20150;-82
2021/07/18 04:22:45;;;;;;;11.93;3.58;;;15.30;99.90;;;;;;5027622;28;20143;-84
2021/07/18 04:25:33;;;;;;;11.40;3.50;;;15.30;99.90;;;;;;5025057;28;20041;-81
2021/07/18 04:28:21;;;;;;;6.20;3.28;;;15.40;99.90;;;;;;5025509;28;20041;-85
2021/07/18 04:31:08;;;;;;;7.50;3.85;;;15.40;99.90;;;;;;5018143;28;20480;-83
2021/07/18 04:33:55;;;;;;;7.13;3.58;;;15.50;99.90;;;;;;5030952;28;20045;-83
2021/07/18 04:36:42;;;;;;;7.75;3.80;;;15.50;99.90;;;;;;5019859;28;20068;-83
2021/07/18 04:39:30;;;;;;;7.15;4.10;;;15.60;99.90;;;;;;5012876;28;20176;-85
2021/07/18 04:42:17;;;;;;;8.60;3.80;;;15.60;99.90;;;;;;5016940;28;20041;-83
2021/07/18 04:45:07;;;;;;;8.18;4.95;;;15.70;99.90;;;;;;5028296;28;20067;-78
2021/07/18 04:47:55;;;;;;;8.73;4.88;;;15.70;99.90;;;;;;5015295;28;20074;-83
2021/07/18 04:50:44;;;;;;;7.68;4.85;;;15.60;99.90;;;;;;5016298;28;20049;-83
2021/07/18 04:53:31;;;;;;;11.10;5.20;;;15.70;99.90;;;;;;5011261;28;20056;-83
2021/07/18 04:56:19;;;;;;;9.70;4.50;;;15.70;99.90;;;;;;5026029;28;20049;-82
2021/07/18 04:59:06;;;;;;;7.60;4.80;;;15.80;99.90;;;;;;5016877;28;20087;-84
2021/07/18 05:01:54;;;;;;;7.18;4.30;;;15.80;99.90;;;;;;5015683;28;20260;-83
2021/07/18 05:04:42;;;;;;;10.77;4.28;;;15.80;99.90;;;;;;5028765;28;20053;-83
2021/07/18 05:07:29;;;;;;;7.85;4.13;;;15.90;99.90;;;;;;5011361;28;20047;-83
2021/07/18 05:10:18;;;;;;;9.98;4.68;;;15.90;99.90;;;;;;5017872;28;20578;-81
2021/07/18 05:13:05;;;;;;;8.10;3.70;;;16.00;99.90;;;;;;5015366;28;20045;-83
2021/07/18 05:15:52;;;;;;;9.48;4.70;;;16.10;99.90;;;;;;5023787;28;20489;-83
2021/07/18 05:18:41;;;;;;;9.40;4.65;;;16.10;99.90;;;;;;5007513;28;20052;-82
2021/07/18 05:21:28;;;;;;;8.40;4.20;;;16.10;99.90;;;;;;5007869;28;20473;-83
2021/07/18 05:24:15;;;;;;;7.10;3.70;;;16.30;99.90;;;;;;5023472;28;20424;-83
2021/07/18 05:27:03;;;;;;;7.40;3.67;;;16.30;99.90;;;;;;5031970;28;20416;-83
2021/07/18 05:29:50;;;;;;;7.43;4.03;;;16.40;99.90;;;;;;5037956;28;20040;-83
2021/07/18 05:32:37;;;;;;;9.35;3.80;;;16.50;99.90;;;;;;5039112;28;20049;-83
2021/07/18 05:35:26;;;;;;;8.70;4.32;;;16.50;99.90;;;;;;5030734;28;20060;-83
2021/07/18 05:38:13;;;;;;;11.45;4.10;;;16.60;99.90;;;;;;5029753;28;20041;-82
2021/07/18 05:41:00;;;;;;;8.10;4.18;;;16.50;99.90;;;;;;5044934;28;20072;-83
2021/07/18 05:43:47;;;;;;;10.65;4.00;;;16.60;99.90;;;;;;5030707;28;20049;-83
2021/07/18 05:46:34;;;;;;;11.00;4.10;;;16.60;99.90;;;;;;5031310;28;20045;-84
2021/07/18 05:49:21;;;;;;;8.15;3.90;;;16.60;99.90;;;;;;5049987;28;20123;-84
2021/07/18 05:52:10;;;;;;;8.20;3.38;;;16.70;99.90;;;;;;5024076;28;20168;-83
2021/07/18 05:54:57;;;;;;;7.97;4.05;;;16.80;99.90;;;;;;5026399;28;20041;-84
2021/07/18 05:57:44;;;;;;;7.72;3.67;;;16.90;99.90;;;;;;5037338;28;20105;-83
2021/07/18 06:00:31;;;;;;;10.15;3.53;;;17.00;99.90;;;;;;5042357;28;20165;-83
2021/07/18 06:03:18;;;;;;;8.95;3.55;;;17.00;99.90;;;;;;5023218;28;20052;-83
2021/07/18 06:06:06;;;;;;;7.10;3.67;;;17.20;99.90;;;;;;5039774;28;20515;-84
2021/07/18 06:08:54;;;;;;;8.43;3.63;;;17.40;99.90;;;;;;5042406;28;20041;-84
2021/07/18 06:11:41;;;;;;;7.32;3.53;;;17.60;99.90;;;;;;5039139;28;20548;-83
2021/07/18 06:14:28;;;;;;;7.05;3.33;;;17.50;99.90;;;;;;5047585;28;20052;-83
2021/07/18 06:17:15;;;;;;;7.15;3.45;;;17.80;99.90;;;;;;5055245;28;20521;-83
2021/07/18 06:20:05;;;;;;;8.43;3.90;;;17.80;99.90;;;;;;5037731;28;20038;-84
2021/07/18 06:22:52;;;;;;;7.78;3.40;;;18.00;99.90;;;;;;5037068;28;20131;-82
2021/07/18 06:25:41;;;;;;;10.13;3.85;;;18.20;99.90;;;;;;5035407;28;20068;-83
2021/07/18 06:28:28;;;;;;;6.72;3.28;;;18.40;99.90;;;;;;5039379;28;20044;-83
2021/07/18 06:31:15;;;;;;;9.82;3.58;;;18.50;99.90;;;;;;5040338;28;20146;-85
2021/07/18 06:34:02;;;;;;;8.75;3.47;;;18.60;99.90;;;;;;5039946;28;20534;-82
2021/07/18 06:36:49;;;;;;;7.30;3.60;;;18.60;99.90;;;;;;5039190;28;20075;-84
2021/07/18 06:39:36;;;;;;;7.25;3.38;;;18.60;99.90;;;;;;5033800;28;20535;-82
2021/07/18 06:42:24;;;;;;;7.75;3.28;;;18.70;99.90;;;;;;5033274;28;20107;-83
2021/07/18 06:45:12;;;;;;;7.30;3.10;;;18.70;99.90;;;;;;5037759;28;20182;-84
2021/07/18 06:47:59;;;;;;;7.85;3.35;;;18.80;99.90;;;;;;5054044;28;20041;-83
2021/07/18 06:50:47;;;;;;;10.05;3.22;;;18.90;99.90;;;;;;5040658;28;20053;-85
2021/07/18 06:53:34;;;;;;;7.50;3.00;;;18.80;99.90;;;;;;5037045;28;20496;-83
2021/07/18 06:56:21;;;;;;;10.95;2.85;;;19.00;99.90;;;;;;5043904;28;20055;-85
2021/07/18 06:59:09;;;;;;;5.97;2.40;;;18.90;99.90;;;;;;5041589;28;20047;-83
2021/07/18 07:01:56;;;;;;;8.27;2.92;;;18.90;99.90;;;;;;5056043;28;20534;-82
2021/07/18 07:04:44;;;;;;;7.78;2.70;;;18.70;99.90;;;;;;5049212;28;20049;-83
2021/07/18 07:07:32;;;;;;;5.78;2.70;;;18.70;99.90;;;;;;5052864;28;20106;-81
2021/07/18 07:10:20;;;;;;;7.10;2.83;;;18.80;99.90;;;;;;5032967;28;20037;-83
2021/07/18 07:13:07;;;;;;;4.43;2.33;;;18.70;99.90;;;;;;5049347;28;20184;-83
2021/07/18 07:15:57;;;;;;;7.60;2.35;;;18.60;99.90;;;;;;5037764;28;20059;-83
2021/07/18 07:18:45;;;;;;;5.50;2.30;;;18.40;99.90;;;;;;5039261;28;20126;-82
2021/07/18 07:21:32;;;;;;;5.38;2.60;;;18.40;99.90;;;;;;5055012;28;20709;-83
2021/07/18 07:24:19;;;;;;;8.95;2.97;;;18.40;99.90;;;;;;5043035;28;20056;-82
2021/07/18 07:27:06;;;;;;;9.68;3.00;;;18.50;99.90;;;;;;5034817;28;20045;-83
2021/07/18 07:29:53;;;;;;;6.40;2.80;;;18.40;99.90;;;;;;5037730;28;20510;-82
2021/07/18 07:32:42;;;;;;;7.30;2.70;;;18.40;99.90;;;;;;5033971;28;20459;-85
2021/07/18 07:35:29;;;;;;;5.15;2.67;;;18.40;99.90;;;;;;5055221;28;20068;-84
2021/07/18 07:38:17;;;;;;;7.15;2.75;;;18.50;99.90;;;;;;5060291;28;20100;-82
2021/07/18 07:41:04;;;;;;;8.20;2.92;;;18.60;99.90;;;;;;5045442;28;20041;-82
2021/07/18 07:43:56;;;;;;;5.10;2.75;;;18.70;99.90;;;;;;5040743;28;20041;-83
2021/07/18 07:46:43;;;;;;;10.05;3.10;;;18.90;99.90;;;;;;5034918;28;20461;-83
2021/07/18 07:49:31;;;;;;;7.15;3.00;;;18.80;99.90;;;;;;5042210;28;20122;-81
2021/07/18 07:52:19;;;;;;;7.32;3.60;;;18.70;99.90;;;;;;5031878;28;20574;-84
2021/07/18 07:55:07;;;;;;;6.80;3.63;;;18.90;99.90;;;;;;5039367;28;20128;-83
2021/07/18 07:57:54;;;;;;;7.70;3.63;;;18.90;99.90;;;;;;5046219;28;20186;-84
2021/07/18 08:00:41;;;;;;;7.30;3.20;;;18.90;99.90;;;;;;5040273;28;20059;-83
2021/07/18 08:03:28;;;;;;;6.78;3.40;;;19.00;99.90;;;;;;5042881;28;20090;-84
2021/07/18 08:06:17;;;;;;;7.07;3.40;;;19.00;99.90;;;;;;5033368;28;20049;-83
2021/07/18 08:09:05;;;;;;;8.52;3.70;;;19.10;99.90;;;;;;5039860;28;20041;-83
2021/07/18 08:11:52;;;;;;;7.13;3.38;;;20.60;99.90;;;;;;5040091;28;20084;-85
2021/07/18 08:14:39;;;;;;;6.18;3.55;;;19.30;99.90;;;;;;5036392;28;20048;-83
2021/07/18 08:17:27;;;;;;;6.15;3.28;;;20.90;99.90;;;;;;5037151;28;20546;-82
2021/07/18 08:20:16;;;;;;;6.28;3.65;;;19.30;99.90;;;;;;5048348;28;20716;-84
2021/07/18 08:23:04;;;;;;;6.15;3.05;;;19.50;99.90;;;;;;5038423;28;20041;-84
2021/07/18 08:25:52;;;;;;;5.18;3.05;;;19.70;99.90;;;;;;5037975;28;20071;-85
2021/07/18 08:28:40;;;;;;;8.88;2.83;;;19.80;99.90;;;;;;5050735;28;20047;-84
2021/07/18 08:31:28;;;;;;;7.10;2.67;;;19.90;99.90;;;;;;5026789;28;20045;-83
2021/07/18 08:34:15;;;;;;;6.15;2.60;;;20.10;99.90;;;;;;5044855;28;20076;-83
2021/07/18 08:37:03;;;;;;;5.43;2.58;;;20.00;99.90;;;;;;5021881;28;20492;-82
2021/07/18 08:39:51;;;;;;;6.82;2.60;;;20.10;99.90;;;;;;5010447;28;20139;-85
2021/07/18 08:42:39;;;;;;;7.22;2.58;;;20.20;99.90;;;;;;5038414;28;20123;-86
2021/07/18 08:45:27;;;;;;;4.40;2.20;;;20.30;99.90;;;;;;5037683;28;20452;-85
2021/07/18 08:48:14;;;;;;;5.38;2.17;;;20.50;99.90;;;;;;5038638;28;20048;-86
2021/07/18 08:51:01;;;;;;;8.45;2.30;;;20.40;99.90;;;;;;5036993;28;20041;-83
2021/07/18 08:53:53;;;;;;;6.85;1.98;;;20.40;99.90;;;;;;5034053;28;20127;-80
2021/07/18 08:56:42;;;;;;;4.82;2.10;;;20.70;99.90;;;;;;5007168;28;20477;-84
2021/07/18 08:59:31;;;;;;;4.07;2.00;;;20.60;99.90;;;;;;5039561;28;20132;-84
2021/07/18 09:02:20;;;;;;;7.00;2.40;;;20.70;99.90;;;;;;5033659;28;20788;-83
2021/07/18 09:05:08;;;;;;;5.90;1.98;;;20.60;99.90;;;;;;5043929;28;20045;-83
2021/07/18 09:07:56;;;;;;;7.47;1.90;;;20.60;99.90;;;;;;5036005;28;20137;-83
2021/07/18 09:10:46;;;;;;;4.35;1.92;;;20.60;99.90;;;;;;5034751;28;20055;-85
2021/07/18 09:13:34;;;;;;;6.25;1.80;;;20.80;99.90;;;;;;5036264;28;20047;-83
2021/07/18 09:16:29;;;;;;;3.25;1.63;;;20.70;99.90;;;;;;5028008;28;20497;-86
2021/07/18 09:19:23;;;;;;;3.30;1.77;;;20.80;99.90;;;;;;5051277;28;20064;-82
2021/07/18 09:22:14;;;;;;;4.88;2.05;;;20.70;99.90;;;;;;5050876;28;20049;-83
2021/07/18 09:25:01;;;;;;;2.58;1.30;;;22.20;99.90;;;;;;5045885;28;20059;-83
2021/07/18 09:27:49;;;;;;;3.90;1.70;;;20.80;99.90;;;;;;5042385;28;20052;-86
2021/07/18 09:30:37;;;;;;;3.78;1.65;;;20.90;99.90;;;;;;5026996;28;20048;-84
2021/07/18 09:36:11;;;;;;;2.92;1.50;;;21.10;99.90;;;;;;4373549;22;20044;-84
2021/07/18 09:39:05;;;;;;;4.60;1.67;;;21.30;99.90;;;;;;5085933;28;20043;-85
2021/07/18 09:41:57;;;;;;;4.85;1.67;;;21.30;99.90;;;;;;5072415;28;20115;-84
2021/07/18 09:44:45;;;;;;;6.07;1.83;;;21.40;99.90;;;;;;5068888;28;20044;-87
2021/07/18 09:47:50;;;;;;;5.35;1.65;;;21.30;99.90;;;;;;5066518;28;20421;-84
2021/07/18 09:50:38;;;;;;;4.10;1.80;;;21.40;99.90;;;;;;5049763;28;20107;-87
2021/07/18 09:53:25;;;;;;;3.65;1.70;;;21.50;99.90;;;;;;5054840;28;20089;-86
2021/07/18 09:56:17;;;;;;;5.35;1.77;;;21.50;99.90;;;;;;5063231;28;20149;-87
2021/07/18 09:59:05;;;;;;;3.53;1.70;;;21.40;99.90;;;;;;5062664;28;20037;-87
2021/07/18 10:01:54;;;;;;;4.10;1.70;;;21.40;99.90;;;;;;5056752;28;20048;-85
2021/07/18 10:04:42;;;;;;;4.40;1.90;;;21.50;99.90;;;;;;5066990;28;20048;-86
2021/07/18 10:07:32;;;;;;;6.32;1.88;;;21.60;99.90;;;;;;5084878;28;20291;-84
2021/07/18 10:10:20;;;;;;;3.45;1.75;;;21.50;99.90;;;;;;5085392;28;20044;-85
2021/07/18 10:13:08;;;;;;;4.25;1.63;;;21.60;99.90;;;;;;5083062;28;20039;-86
2021/07/18 10:15:56;;;;;;;2.67;1.50;;;21.60;99.90;;;;;;5069117;28;20044;-86
2021/07/18 10:18:46;;;;;;;4.70;1.70;;;21.70;99.90;;;;;;5072379;28;20044;-85
2021/07/18 10:21:37;;;;;;;4.57;1.60;;;21.60;99.90;;;;;;5075133;28;20505;-84
2021/07/18 10:24:26;;;;;;;5.85;1.70;;;21.80;99.90;;;;;;5087909;28;20043;-86
2021/07/18 10:27:17;;;;;;;3.42;1.73;;;22.00;99.90;;;;;;5077649;28;20147;-86
2021/07/18 10:30:05;;;;;;;2.92;1.40;;;22.20;99.90;;;;;;5077508;28;20040;-86
2021/07/18 10:32:54;;;;;;;4.47;1.50;;;22.30;99.90;;;;;;5089955;28;20177;-87
2021/07/18 10:35:42;;;;;;;3.83;1.80;;;22.50;99.90;;;;;;5086126;28;20132;-85
2021/07/18 10:38:34;;;;;;;3.88;1.70;;;22.50;99.90;;;;;;5069946;28;20045;-86
2021/07/18 10:41:44;;;;;;;2.97;1.40;;;22.60;99.90;;;;;;5088042;28;20032;-87
2021/07/18 10:44:40;;;;;;;3.35;1.60;;;22.60;99.90;;;;;;5085002;28;20052;-88
2021/07/18 10:47:59;;;;;;;3.70;1.60;;;22.60;99.90;;;;;;5085069;28;20043;-86
2021/07/18 10:50:50;;;;;;;4.57;1.83;;;22.70;99.90;;;;;;5086582;28;20133;-83
2021/07/18 10:53:38;;;;;;;5.60;1.70;;;22.80;99.90;;;;;;5084861;28;20102;-85
2021/07/18 10:56:41;;;;;;;3.90;1.73;;;22.80;99.90;;;;;;5075805;28;20123;-86
2021/07/18 10:59:36;;;;;;;3.55;1.40;;;22.90;99.90;;;;;;5085495;28;20040;-87
2021/07/18 11:02:33;;;;;;;3.70;1.40;;;23.00;99.90;;;;;;5074405;28;20044;-84
2021/07/18 11:05:38;;;;;;;2.63;1.50;;;23.10;99.90;;;;;;5078844;28;20082;-85
2021/07/18 11:08:25;;;;;;;4.05;1.60;;;23.10;99.90;;;;;;5079737;28;20062;-86
2021/07/18 11:11:36;;;;;;;3.05;1.45;;;23.10;99.90;;;;;;5075868;28;20036;-87
2021/07/18 11:14:34;;;;;;;2.90;1.60;;;23.30;99.90;;;;;;5071953;28;20056;-85
2021/07/18 11:17:26;;;;;;;3.20;1.55;;;23.50;99.90;;;;;;5091731;28;20135;-87
2021/07/18 11:20:13;;;;;;;4.25;1.90;;;23.50;99.90;;;;;;5096023;28;20044;-86
2021/07/18 11:23:02;;;;;;;3.95;1.50;;;23.40;99.90;;;;;;5093898;28;20127;-86
2021/07/18 11:25:52;;;;;;;4.07;1.70;;;23.30;99.90;;;;;;5076779;28;20119;-86
2021/07/18 11:28:49;;;;;;;3.72;1.70;;;23.20;99.90;;;;;;5080271;28;20100;-86
2021/07/18 11:31:42;;;;;;;6.43;2.00;;;23.30;99.90;;;;;;5099912;28;20051;-86
2021/07/18 11:34:45;;;;;;;4.00;1.60;;;23.30;99.90;;;;;;5092371;28;20421;-85
2021/07/18 11:37:36;;;;;;;3.15;1.30;;;23.40;99.90;;;;;;5098618;28;20446;-85
2021/07/18 11:40:35;;;;;;;3.63;1.80;;;23.40;99.90;;;;;;5089279;28;20051;-84
2021/07/18 11:43:23;;;;;;;2.40;1.38;;;23.50;99.90;;;;;;5075683;28;20093;-85
2021/07/18 11:46:12;;;;;;;4.55;1.60;;;23.50;99.90;;;;;;5089414;28;20078;-84
2021/07/18 11:49:01;;;;;;;3.65;1.63;;;23.50;99.90;;;;;;5089928;28;20421;-85
2021/07/18 11:51:48;;;;;;;4.07;1.58;;;23.40;99.90;;;;;;5079311;28;20176;-85
2021/07/18 11:54:36;;;;;;;2.20;1.30;;;23.50;99.90;;;;;;5084683;28;20048;-85
2021/07/18 11:57:23;;;;;;;3.55;1.30;;;23.60;99.90;;;;;;5089899;28;20510;-85
2021/07/18 12:00:11;;;;;;;4.60;1.50;;;23.70;99.90;;;;;;5082058;28;20178;-84
2021/07/18 12:03:01;;;;;;;3.88;1.40;;;23.80;99.90;;;;;;5077886;28;20044;-86
2021/07/18 12:05:49;;;;;;;4.65;1.80;;;24.10;99.90;;;;;;5080931;28;20055;-83
2021/07/18 12:08:36;;;;;;;4.00;1.73;;;23.90;99.90;;;;;;5069673;28;20040;-84
2021/07/18 12:11:24;;;;;;;2.95;1.38;;;24.00;99.90;;;;;;5092383;28;20127;-85
2021/07/18 12:14:12;;;;;;;3.43;1.47;;;24.00;99.90;;;;;;5089945;28;20048;-85
2021/07/18 12:17:00;;;;;;;5.40;1.42;;;24.20;99.90;;;;;;5070134;28;20300;-86
2021/07/18 12:19:49;;;;;;;3.33;1.65;;;24.30;99.50;;;;;;5089888;28;20055;-84
2021/07/18 12:22:36;;;;;;;4.05;1.40;;;24.30;99.30;;;;;;5071744;28;20115;-84
2021/07/18 12:25:23;;;;;;;3.10;1.38;;;24.20;99.80;;;;;;5086135;28;20413;-85
2021/07/18 12:28:10;;;;;;;4.00;1.90;;;24.10;99.40;;;;;;5081104;28;20056;-85
2021/07/18 12:31:04;;;;;;;4.70;1.42;;;24.20;99.80;;;;;;5073561;28;20043;-84
2021/07/18 12:33:54;;;;;;;4.13;1.50;;;24.30;99.90;;;;;;5086610;28;20464;-86
2021/07/18 12:36:56;;;;;;;6.30;1.50;;;24.40;99.90;;;;;;5070950;28;20041;-86
2021/07/18 12:39:45;;;;;;;2.75;1.45;;;24.50;99.40;;;;;;5088287;28;20044;-84
2021/07/18 12:42:34;;;;;;;4.63;1.60;;;24.50;98.80;;;;;;5069237;28;20410;-87
2021/07/18 12:45:21;;;;;;;2.03;1.33;;;24.50;97.90;;;;;;5081846;28;20117;-83
2021/07/18 12:48:10;;;;;;;2.38;1.23;;;24.60;98.90;;;;;;5084145;28;20075;-84
2021/07/18 12:50:57;;;;;;;3.30;1.15;;;24.60;98.30;;;;;;5086300;28;20048;-85
2021/07/18 12:53:53;;;;;;;2.70;1.35;;;24.60;98.60;;;;;;5088287;28;20119;-86
2021/07/18 12:56:40;;;;;;;3.15;1.60;;;24.70;99.00;;;;;;5087324;28;20522;-83
2021/07/18 12:59:28;;;;;;;4.43;1.38;;;24.70;99.30;;;;;;5072137;28;20056;-85
2021/07/18 13:02:15;;;;;;;4.63;1.63;;;24.80;98.90;;;;;;5083119;28;20084;-85
2021/07/18 13:05:04;;;;;;;3.38;1.40;;;24.90;98.50;;;;;;5083568;28;20051;-85
2021/07/18 13:07:51;;;;;;;4.72;1.60;;;25.00;98.80;;;;;;5073718;28;20089;-85
2021/07/18 13:10:41;;;;;;;4.32;1.40;;;25.00;98.20;;;;;;5069547;28;20048;-84
2021/07/18 13:13:31;;;;;;;3.50;1.60;;;24.90;99.00;;;;;;5081123;28;20096;-84
2021/07/18 13:16:29;;;;;;;;;;;25.00;97.80;;;;;;5086682;28;20144;-84
2021/07/18 13:19:18;;;;;;;3.37;1.57;;;25.00;98.50;;;;;;5087033;28;19930;-84
2021/07/18 13:22:06;;;;;;;2.22;1.27;;;25.10;99.00;;;;;;5071732;28;20453;-84
2021/07/18 13:24:54;;;;;;;3.15;1.45;;;25.30;97.70;;;;;;5071700;28;20447;-84
2021/07/18 13:27:43;;;;;;;2.85;1.45;;;25.30;97.30;;;;;;5084917;28;20066;-83
2021/07/18 13:30:32;;;;;;;3.70;1.40;;;25.40;97.60;;;;;;5088980;28;20558;-83
2021/07/18 13:33:20;;;;;;;3.00;1.42;;;25.50;97.60;;;;;;5074943;28;20048;-85
2021/07/18 13:36:07;;;;;;;4.07;1.73;;;25.60;97.60;;;;;;5089268;28;20213;-85
2021/07/18 13:39:05;;;;;;;2.30;1.30;;;25.80;97.50;;;;;;5086429;28;20181;-87
2021/07/18 13:42:05;;;;;;;3.10;1.50;;;26.10;97.20;;;;;;5088903;28;20070;-85
2021/07/18 13:44:53;;;;;;;2.50;1.55;;;26.10;96.60;;;;;;5075350;28;20040;-83
2021/07/18 13:47:40;;;;;;;4.90;1.50;;;26.30;96.40;;;;;;5093443;28;20491;-87
2021/07/18 13:50:28;;;;;;;5.13;1.67;;;26.40;96.40;;;;;;5072969;28;20039;-84
2021/07/18 13:53:16;;;;;;;3.35;1.35;;;26.50;95.70;;;;;;5070063;28;20058;-86
2021/07/18 13:56:03;;;;;;;3.28;1.30;;;26.80;95.50;;;;;;5070702;28;20052;-84
2021/07/18 13:58:53;;;;;;;4.03;1.73;;;27.60;97.00;;;;;;5084306;28;20044;-86
2021/07/18 14:01:42;;;;;;;4.05;1.40;;;27.80;94.90;;;;;;5073905;28;20509;-87
2021/07/18 14:04:30;;;;;;;4.10;1.60;;;27.70;94.80;;;;;;5076021;28;20071;-84
2021/07/18 14:07:17;;;;;;;9.02;1.60;;;27.40;94.30;;;;;;5088496;28;20054;-84
2021/07/18 14:10:07;;;;;;;3.47;1.50;;;27.00;94.50;;;;;;5074012;28;20115;-84
2021/07/18 14:12:54;;;;;;;3.22;1.30;;;27.10;94.60;;;;;;5067965;28;20300;-87
2021/07/18 14:15:41;;;;;;;3.83;1.48;;;27.10;94.30;;;;;;5066921;28;20121;-84
2021/07/18 14:18:30;;;;;;;3.55;1.33;;;27.00;94.40;;;;;;5082816;28;20055;-85
2021/07/18 14:21:18;;;;;;;2.50;1.30;;;27.10;94.70;;;;;;5085179;28;20078;-87
2021/07/18 14:24:06;;;;;;;3.90;1.40;;;27.40;94.60;;;;;;5072030;28;20047;-86
2021/07/18 14:26:53;;;;;;;3.15;1.48;;;28.00;93.80;;;;;;5073618;28;20040;-86
2021/07/18 14:29:40;;;;;;;8.85;1.70;;;28.50;94.10;;;;;;5084647;28;20120;-84
2021/07/18 14:32:27;;;;;;;4.15;1.50;;;28.10;93.40;;;;;;5087476;28;20045;-87
2021/07/18 14:35:17;;;;;;;3.42;1.40;;;27.70;93.10;;;;;;5067518;28;20052;-85
2021/07/18 14:38:07;;;;;;;5.20;1.35;;;27.80;93.50;;;;;;5069921;28;20125;-84
2021/07/18 14:40:55;;;;;;;3.97;1.50;;;27.30;93.20;;;;;;5071452;28;20660;-85